sensor_id;sensor_type;location;lat;lon;timestamp;pressure;altitude;pressure_sealevel;temperature
66113;BMP280;52893;52.870;5.822;2022-12-18T00:01:21;102775.91;;;-1.91
66113;BMP280;52893;52.870;5.822;2022-12-18T00:03:49;102760.22;;;-1.94
66113;BMP280;52893;52.870;5.822;2022-12-18T00:06:17;102756.91;;;-1.96
66113;BMP280;52893;52.870;5.822;2022-12-18T00:08:44;102699.19;;;-2.34
66113;BMP280;52893;52.870;5.822;2022-12-18T00:11:14;102740.06;;;-2.11
66113;BMP280;52893;52.870;5.822;2022-12-18T00:13:45;102755.34;;;-2.05
66113;BMP280;52893;52.870;5.822;2022-12-18T00:16:14;102764.78;;;-2.09
66113;BMP280;52893;52.870;5.822;2022-12-18T00:18:41;102750.38;;;-2.08
66113;BMP280;52893;52.870;5.822;2022-12-18T00:21:11;102750.56;;;-2.09
66113;BMP280;52893;52.870;5.822;2022-12-18T00:23:39;102741.25;;;-2.13
66113;BMP280;52893;52.870;5.822;2022-12-18T00:26:11;102739.59;;;-2.14
66113;BMP280;52893;52.870;5.822;2022-12-18T00:28:43;102747.34;;;-2.19
66113;BMP280;52893;52.870;5.822;2022-12-18T00:31:12;102743.56;;;-2.25
66113;BMP280;52893;52.870;5.822;2022-12-18T00:33:40;102764.97;;;-2.25
66113;BMP280;52893;52.870;5.822;2022-12-18T00:36:11;102774.81;;;-2.26
66113;BMP280;52893;52.870;5.822;2022-12-18T00:38:39;102774.00;;;-2.26
66113;BMP280;52893;52.870;5.822;2022-12-18T00:41:07;102774.81;;;-2.26
66113;BMP280;52893;52.870;5.822;2022-12-18T00:43:35;102772.16;;;-2.26
66113;BMP280;52893;52.870;5.822;2022-12-18T00:46:04;102754.50;;;-2.35
66113;BMP280;52893;52.870;5.822;2022-12-18T00:48:32;102726.31;;;-2.52
66113;BMP280;52893;52.870;5.822;2022-12-18T00:50:59;102757.31;;;-2.28
66113;BMP280;52893;52.870;5.822;2022-12-18T00:53:26;102749.75;;;-2.25
66113;BMP280;52893;52.870;5.822;2022-12-18T00:55:55;102753.66;;;-2.27
66113;BMP280;52893;52.870;5.822;2022-12-18T00:58:22;102753.81;;;-2.29
66113;BMP280;52893;52.870;5.822;2022-12-18T01:00:49;102756.66;;;-2.30
66113;BMP280;52893;52.870;5.822;2022-12-18T01:03:18;102764.03;;;-2.32
66113;BMP280;52893;52.870;5.822;2022-12-18T01:05:46;102749.44;;;-2.44
66113;BMP280;52893;52.870;5.822;2022-12-18T01:08:13;102761.44;;;-2.40
66113;BMP280;52893;52.870;5.822;2022-12-18T01:10:43;102768.09;;;-2.36
66113;BMP280;52893;52.870;5.822;2022-12-18T01:13:10;102758.41;;;-2.37
66113;BMP280;52893;52.870;5.822;2022-12-18T01:15:37;102763.09;;;-2.39
66113;BMP280;52893;52.870;5.822;2022-12-18T01:18:06;102760.16;;;-2.44
66113;BMP280;52893;52.870;5.822;2022-12-18T01:20:35;102754.25;;;-2.54
66113;BMP280;52893;52.870;5.822;2022-12-18T01:23:05;102766.59;;;-2.53
66113;BMP280;52893;52.870;5.822;2022-12-18T01:25:35;102737.44;;;-2.78
66113;BMP280;52893;52.870;5.822;2022-12-18T01:28:02;102768.88;;;-2.65
66113;BMP280;52893;52.870;5.822;2022-12-18T01:30:31;102703.28;;;-3.05
66113;BMP280;52893;52.870;5.822;2022-12-18T01:32:59;102763.41;;;-2.72
66113;BMP280;52893;52.870;5.822;2022-12-18T01:35:26;102768.75;;;-2.72
66113;BMP280;52893;52.870;5.822;2022-12-18T01:37:55;102777.16;;;-2.75
66113;BMP280;52893;52.870;5.822;2022-12-18T01:40:23;102782.31;;;-2.73
66113;BMP280;52893;52.870;5.822;2022-12-18T01:42:52;102781.31;;;-2.72
66113;BMP280;52893;52.870;5.822;2022-12-18T01:45:24;102777.78;;;-2.73
66113;BMP280;52893;52.870;5.822;2022-12-18T01:47:55;102783.53;;;-2.76
66113;BMP280;52893;52.870;5.822;2022-12-18T01:50:25;102797.06;;;-2.77
66113;BMP280;52893;52.870;5.822;2022-12-18T01:52:58;102803.25;;;-2.77
66113;BMP280;52893;52.870;5.822;2022-12-18T01:55:29;102806.28;;;-2.80
66113;BMP280;52893;52.870;5.822;2022-12-18T01:57:59;102799.25;;;-2.81
66113;BMP280;52893;52.870;5.822;2022-12-18T02:00:28;102807.28;;;-2.81
66113;BMP280;52893;52.870;5.822;2022-12-18T02:02:56;102800.25;;;-2.82
66113;BMP280;52893;52.870;5.822;2022-12-18T02:05:29;102800.66;;;-2.85
66113;BMP280;52893;52.870;5.822;2022-12-18T02:08:09;102802.66;;;-2.87
66113;BMP280;52893;52.870;5.822;2022-12-18T02:10:43;102802.19;;;-2.90
66113;BMP280;52893;52.870;5.822;2022-12-18T02:13:18;102799.69;;;-2.92
66113;BMP280;52893;52.870;5.822;2022-12-18T02:15:51;102796.34;;;-2.94
66113;BMP280;52893;52.870;5.822;2022-12-18T02:18:25;102761.47;;;-3.15
66113;BMP280;52893;52.870;5.822;2022-12-18T02:20:59;102795.41;;;-3.01
66113;BMP280;52893;52.870;5.822;2022-12-18T02:23:42;102791.28;;;-3.04
66113;BMP280;52893;52.870;5.822;2022-12-18T02:26:20;102788.78;;;-3.05
66113;BMP280;52893;52.870;5.822;2022-12-18T02:28:54;102789.13;;;-3.08
66113;BMP280;52893;52.870;5.822;2022-12-18T02:31:28;102791.78;;;-3.08
66113;BMP280;52893;52.870;5.822;2022-12-18T02:34:00;102787.44;;;-3.09
66113;BMP280;52893;52.870;5.822;2022-12-18T02:36:32;102791.13;;;-3.10
66113;BMP280;52893;52.870;5.822;2022-12-18T02:39:02;102780.53;;;-3.18
66113;BMP280;52893;52.870;5.822;2022-12-18T02:41:32;102753.38;;;-3.30
66113;BMP280;52893;52.870;5.822;2022-12-18T02:44:01;102772.06;;;-3.22
66113;BMP280;52893;52.870;5.822;2022-12-18T02:46:33;102778.53;;;-3.24
66113;BMP280;52893;52.870;5.822;2022-12-18T02:49:14;102787.56;;;-3.25
66113;BMP280;52893;52.870;5.822;2022-12-18T02:51:51;102777.88;;;-3.27
66113;BMP280;52893;52.870;5.822;2022-12-18T02:54:32;102761.09;;;-3.35
66113;BMP280;52893;52.870;5.822;2022-12-18T02:57:11;102772.91;;;-3.30
66113;BMP280;52893;52.870;5.822;2022-12-18T02:59:41;102766.56;;;-3.29
66113;BMP280;52893;52.870;5.822;2022-12-18T03:02:19;102760.38;;;-3.29
66113;BMP280;52893;52.870;5.822;2022-12-18T03:04:51;102749.91;;;-3.31
66113;BMP280;52893;52.870;5.822;2022-12-18T03:07:26;102750.06;;;-3.32
66113;BMP280;52893;52.870;5.822;2022-12-18T03:09:56;102739.25;;;-3.39
66113;BMP280;52893;52.870;5.822;2022-12-18T03:12:29;102768.94;;;-3.34
66113;BMP280;52893;52.870;5.822;2022-12-18T03:15:01;102656.84;;;-3.95
66113;BMP280;52893;52.870;5.822;2022-12-18T03:17:32;102756.59;;;-3.35
66113;BMP280;52893;52.870;5.822;2022-12-18T03:20:04;102760.44;;;-3.37
66113;BMP280;52893;52.870;5.822;2022-12-18T03:22:34;102756.28;;;-3.40
66113;BMP280;52893;52.870;5.822;2022-12-18T03:25:07;102764.66;;;-3.43
66113;BMP280;52893;52.870;5.822;2022-12-18T03:27:43;102763.34;;;-3.47
66113;BMP280;52893;52.870;5.822;2022-12-18T03:30:15;102764.88;;;-3.52
66113;BMP280;52893;52.870;5.822;2022-12-18T03:32:47;102759.88;;;-3.55
66113;BMP280;52893;52.870;5.822;2022-12-18T03:35:22;102762.25;;;-3.60
66113;BMP280;52893;52.870;5.822;2022-12-18T03:37:51;102760.09;;;-3.65
66113;BMP280;52893;52.870;5.822;2022-12-18T03:40:20;102765.78;;;-3.68
66113;BMP280;52893;52.870;5.822;2022-12-18T03:42:58;102711.59;;;-4.00
66113;BMP280;52893;52.870;5.822;2022-12-18T03:45:32;102757.81;;;-3.76
66113;BMP280;52893;52.870;5.822;2022-12-18T03:48:05;102759.00;;;-3.79
66113;BMP280;52893;52.870;5.822;2022-12-18T03:50:45;102749.84;;;-3.84
66113;BMP280;52893;52.870;5.822;2022-12-18T03:53:22;102753.06;;;-3.89
66113;BMP280;52893;52.870;5.822;2022-12-18T03:55:52;102753.25;;;-3.90
66113;BMP280;52893;52.870;5.822;2022-12-18T03:58:24;102743.03;;;-3.95
66113;BMP280;52893;52.870;5.822;2022-12-18T04:01:00;102736.41;;;-3.99
66113;BMP280;52893;52.870;5.822;2022-12-18T04:03:31;102714.13;;;-4.06
66113;BMP280;52893;52.870;5.822;2022-12-18T04:06:00;102720.47;;;-4.07
66113;BMP280;52893;52.870;5.822;2022-12-18T04:08:28;102734.97;;;-4.10
66113;BMP280;52893;52.870;5.822;2022-12-18T04:11:04;102736.97;;;-4.12
66113;BMP280;52893;52.870;5.822;2022-12-18T04:13:35;102731.97;;;-4.15
66113;BMP280;52893;52.870;5.822;2022-12-18T04:16:07;102735.66;;;-4.16
66113;BMP280;52893;52.870;5.822;2022-12-18T04:18:38;102714.38;;;-4.32
66113;BMP280;52893;52.870;5.822;2022-12-18T04:21:06;102745.81;;;-4.19
66113;BMP280;52893;52.870;5.822;2022-12-18T04:23:33;102749.66;;;-4.22
66113;BMP280;52893;52.870;5.822;2022-12-18T04:26:01;102756.00;;;-4.23
66113;BMP280;52893;52.870;5.822;2022-12-18T04:28:48;102751.03;;;-4.26
66113;BMP280;52893;52.870;5.822;2022-12-18T04:31:16;102745.38;;;-4.31
66113;BMP280;52893;52.870;5.822;2022-12-18T04:33:43;102744.38;;;-4.30
66113;BMP280;52893;52.870;5.822;2022-12-18T04:36:10;102741.88;;;-4.31
66113;BMP280;52893;52.870;5.822;2022-12-18T04:38:40;102735.88;;;-4.34
66113;BMP280;52893;52.870;5.822;2022-12-18T04:41:14;102718.75;;;-4.47
66113;BMP280;52893;52.870;5.822;2022-12-18T04:43:44;102739.38;;;-4.41
66113;BMP280;52893;52.870;5.822;2022-12-18T04:46:12;102735.22;;;-4.44
66113;BMP280;52893;52.870;5.822;2022-12-18T04:48:40;102740.75;;;-4.45
66113;BMP280;52893;52.870;5.822;2022-12-18T04:51:07;102743.06;;;-4.50
66113;BMP280;52893;52.870;5.822;2022-12-18T04:53:34;102749.22;;;-4.50
66113;BMP280;52893;52.870;5.822;2022-12-18T04:56:04;102745.91;;;-4.52
66113;BMP280;52893;52.870;5.822;2022-12-18T04:58:31;102751.91;;;-4.58
66113;BMP280;52893;52.870;5.822;2022-12-18T05:00:58;102753.91;;;-4.60
66113;BMP280;52893;52.870;5.822;2022-12-18T05:03:27;102751.75;;;-4.64
66113;BMP280;52893;52.870;5.822;2022-12-18T05:05:54;102733.59;;;-4.77
66113;BMP280;52893;52.870;5.822;2022-12-18T05:08:22;102752.09;;;-4.68
66113;BMP280;52893;52.870;5.822;2022-12-18T05:10:49;102745.44;;;-4.72
66113;BMP280;52893;52.870;5.822;2022-12-18T05:13:16;102755.75;;;-4.69
66113;BMP280;52893;52.870;5.822;2022-12-18T05:15:51;102759.78;;;-4.73
66113;BMP280;52893;52.870;5.822;2022-12-18T05:18:19;102767.78;;;-4.73
66113;BMP280;52893;52.870;5.822;2022-12-18T05:20:47;102767.22;;;-4.76
66113;BMP280;52893;52.870;5.822;2022-12-18T05:23:15;102774.38;;;-4.77
66113;BMP280;52893;52.870;5.822;2022-12-18T05:25:50;102781.72;;;-4.79
66113;BMP280;52893;52.870;5.822;2022-12-18T05:28:18;102756.25;;;-4.97
66113;BMP280;52893;52.870;5.822;2022-12-18T05:30:48;102791.06;;;-4.83
66113;BMP280;52893;52.870;5.822;2022-12-18T05:33:15;102801.03;;;-4.85
66113;BMP280;52893;52.870;5.822;2022-12-18T05:35:42;102790.03;;;-4.90
66113;BMP280;52893;52.870;5.822;2022-12-18T05:38:11;102800.69;;;-4.90
66113;BMP280;52893;52.870;5.822;2022-12-18T05:40:41;102783.22;;;-5.00
66113;BMP280;52893;52.870;5.822;2022-12-18T05:43:09;102786.06;;;-5.02
66113;BMP280;52893;52.870;5.822;2022-12-18T05:45:37;102791.22;;;-5.00
66113;BMP280;52893;52.870;5.822;2022-12-18T05:48:05;102793.22;;;-5.03
66113;BMP280;52893;52.870;5.822;2022-12-18T05:50:34;102795.34;;;-5.06
66113;BMP280;52893;52.870;5.822;2022-12-18T05:53:02;102787.53;;;-5.08
66113;BMP280;52893;52.870;5.822;2022-12-18T05:55:32;102791.34;;;-5.10
66113;BMP280;52893;52.870;5.822;2022-12-18T05:58:00;102794.03;;;-5.10
66113;BMP280;52893;52.870;5.822;2022-12-18T06:00:27;102799.66;;;-5.13
66113;BMP280;52893;52.870;5.822;2022-12-18T06:02:54;102804.31;;;-5.15
66113;BMP280;52893;52.870;5.822;2022-12-18T06:05:22;102804.63;;;-5.18
66113;BMP280;52893;52.870;5.822;2022-12-18T06:07:49;102798.31;;;-5.17
66113;BMP280;52893;52.870;5.822;2022-12-18T06:10:16;102798.31;;;-5.17
66113;BMP280;52893;52.870;5.822;2022-12-18T06:12:45;102782.34;;;-5.17
66113;BMP280;52893;52.870;5.822;2022-12-18T06:15:12;102787.34;;;-5.14
66113;BMP280;52893;52.870;5.822;2022-12-18T06:17:39;102780.34;;;-5.15
66113;BMP280;52893;52.870;5.822;2022-12-18T06:20:07;102782.19;;;-5.16
66113;BMP280;52893;52.870;5.822;2022-12-18T06:22:34;102766.38;;;-5.17
66113;BMP280;52893;52.870;5.822;2022-12-18T06:25:02;102759.06;;;-5.15
66113;BMP280;52893;52.870;5.822;2022-12-18T06:27:30;102760.72;;;-5.14
66113;BMP280;52893;52.870;5.822;2022-12-18T06:29:59;102758.06;;;-5.14
66113;BMP280;52893;52.870;5.822;2022-12-18T06:32:26;102760.56;;;-5.13
66113;BMP280;52893;52.870;5.822;2022-12-18T06:34:53;102744.09;;;-5.24
66113;BMP280;52893;52.870;5.822;2022-12-18T06:37:21;102761.03;;;-5.09
66113;BMP280;52893;52.870;5.822;2022-12-18T06:39:50;102752.75;;;-5.06
66113;BMP280;52893;52.870;5.822;2022-12-18T06:42:17;102726.97;;;-5.22
66113;BMP280;52893;52.870;5.822;2022-12-18T06:44:52;102759.75;;;-5.05
66113;BMP280;52893;52.870;5.822;2022-12-18T06:47:21;102752.44;;;-5.03
66113;BMP280;52893;52.870;5.822;2022-12-18T06:49:48;102736.78;;;-5.06
66113;BMP280;52893;52.870;5.822;2022-12-18T06:52:15;102735.13;;;-5.07
66113;BMP280;52893;52.870;5.822;2022-12-18T06:54:42;102736.09;;;-5.08
66113;BMP280;52893;52.870;5.822;2022-12-18T06:57:09;102731.09;;;-5.11
66113;BMP280;52893;52.870;5.822;2022-12-18T06:59:37;102731.28;;;-5.13
66113;BMP280;52893;52.870;5.822;2022-12-18T07:02:04;102713.97;;;-5.25
66113;BMP280;52893;52.870;5.822;2022-12-18T07:04:32;102732.28;;;-5.14
66113;BMP280;52893;52.870;5.822;2022-12-18T07:07:00;102718.97;;;-5.14
66113;BMP280;52893;52.870;5.822;2022-12-18T07:09:27;102718.78;;;-5.12
66113;BMP280;52893;52.870;5.822;2022-12-18T07:11:54;102716.13;;;-5.12
66113;BMP280;52893;52.870;5.822;2022-12-18T07:14:22;102709.97;;;-5.13
66113;BMP280;52893;52.870;5.822;2022-12-18T07:16:49;102703.16;;;-5.23
66113;BMP280;52893;52.870;5.822;2022-12-18T07:19:16;102714.47;;;-5.13
66113;BMP280;52893;52.870;5.822;2022-12-18T07:21:45;102724.78;;;-5.10
66113;BMP280;52893;52.870;5.822;2022-12-18T07:24:12;102721.97;;;-5.09
66113;BMP280;52893;52.870;5.822;2022-12-18T07:26:39;102732.44;;;-5.07
66113;BMP280;52893;52.870;5.822;2022-12-18T07:29:06;102724.31;;;-5.06
66113;BMP280;52893;52.870;5.822;2022-12-18T07:31:33;102719.66;;;-5.04
66113;BMP280;52893;52.870;5.822;2022-12-18T07:34:01;102714.16;;;-5.02
66113;BMP280;52893;52.870;5.822;2022-12-18T07:36:28;102702.66;;;-5.03
66113;BMP280;52893;52.870;5.822;2022-12-18T07:38:56;102702.31;;;-4.99
66113;BMP280;52893;52.870;5.822;2022-12-18T07:41:23;102696.50;;;-4.95
66113;BMP280;52893;52.870;5.822;2022-12-18T07:43:51;102711.31;;;-4.92
66113;BMP280;52893;52.870;5.822;2022-12-18T07:46:18;102709.31;;;-4.90
66113;BMP280;52893;52.870;5.822;2022-12-18T07:48:45;102715.97;;;-4.86
66113;BMP280;52893;52.870;5.822;2022-12-18T07:51:13;102702.81;;;-4.96
66113;BMP280;52893;52.870;5.822;2022-12-18T07:53:40;102721.59;;;-4.81
66113;BMP280;52893;52.870;5.822;2022-12-18T07:56:12;102712.81;;;-4.82
66113;BMP280;52893;52.870;5.822;2022-12-18T07:58:39;102710.16;;;-4.74
66113;BMP280;52893;52.870;5.822;2022-12-18T08:01:08;102714.13;;;-4.70
66113;BMP280;52893;52.870;5.822;2022-12-18T08:03:36;102700.13;;;-4.63
66113;BMP280;52893;52.870;5.822;2022-12-18T08:06:05;102689.59;;;-4.57
66113;BMP280;52893;52.870;5.822;2022-12-18T08:08:33;102654.84;;;-4.72
66113;BMP280;52893;52.870;5.822;2022-12-18T08:11:01;102676.78;;;-4.45
66113;BMP280;52893;52.870;5.822;2022-12-18T08:13:30;102654.47;;;-4.52
66113;BMP280;52893;52.870;5.822;2022-12-18T08:15:59;102676.38;;;-4.34
66113;BMP280;52893;52.870;5.822;2022-12-18T08:18:27;102683.72;;;-4.28
66113;BMP280;52893;52.870;5.822;2022-12-18T08:20:55;102692.00;;;-4.23
66113;BMP280;52893;52.870;5.822;2022-12-18T08:23:22;102703.31;;;-4.13
66113;BMP280;52893;52.870;5.822;2022-12-18T08:25:50;102693.25;;;-4.03
66113;BMP280;52893;52.870;5.822;2022-12-18T08:28:17;102703.03;;;-3.95
66113;BMP280;52893;52.870;5.822;2022-12-18T08:30:45;102698.50;;;-3.86
66113;BMP280;52893;52.870;5.822;2022-12-18T08:33:13;102694.16;;;-3.79
66113;BMP280;52893;52.870;5.822;2022-12-18T08:35:40;102693.94;;;-3.70
66113;BMP280;52893;52.870;5.822;2022-12-18T08:38:07;102693.69;;;-3.60
66113;BMP280;52893;52.870;5.822;2022-12-18T08:40:34;102699.63;;;-3.50
66113;BMP280;52893;52.870;5.822;2022-12-18T08:43:02;102701.88;;;-3.39
66113;BMP280;52893;52.870;5.822;2022-12-18T08:45:48;102680.75;;;-3.25
66113;BMP280;52893;52.870;5.822;2022-12-18T08:48:15;102686.34;;;-3.12
66113;BMP280;52893;52.870;5.822;2022-12-18T08:50:42;102659.16;;;-3.16
66113;BMP280;52893;52.870;5.822;2022-12-18T08:53:09;102686.28;;;-2.89
66113;BMP280;52893;52.870;5.822;2022-12-18T08:55:36;102685.56;;;-2.83
66113;BMP280;52893;52.870;5.822;2022-12-18T08:58:04;102696.59;;;-2.72
66113;BMP280;52893;52.870;5.822;2022-12-18T09:00:34;102700.22;;;-2.65
66113;BMP280;52893;52.870;5.822;2022-12-18T09:03:03;102638.34;;;-2.91
66113;BMP280;52893;52.870;5.822;2022-12-18T09:05:30;102693.88;;;-2.49
66113;BMP280;52893;52.870;5.822;2022-12-18T09:07:58;102675.88;;;-2.40
66113;BMP280;52893;52.870;5.822;2022-12-18T09:10:25;102665.00;;;-2.39
66113;BMP280;52893;52.870;5.822;2022-12-18T09:12:52;102687.91;;;-2.15
66113;BMP280;52893;52.870;5.822;2022-12-18T09:15:19;102691.22;;;-1.98
66113;BMP280;52893;52.870;5.822;2022-12-18T09:17:47;102697.19;;;-1.81
66113;BMP280;52893;52.870;5.822;2022-12-18T09:20:17;102698.91;;;-1.74
66113;BMP280;52893;52.870;5.822;2022-12-18T09:22:44;102694.19;;;-1.72
66113;BMP280;52893;52.870;5.822;2022-12-18T09:25:12;102704.25;;;-1.74
66113;BMP280;52893;52.870;5.822;2022-12-18T09:27:39;102716.22;;;-1.70
66113;BMP280;52893;52.870;5.822;2022-12-18T09:30:07;102711.59;;;-1.61
66113;BMP280;52893;52.870;5.822;2022-12-18T09:32:34;102710.78;;;-1.62
66113;BMP280;52893;52.870;5.822;2022-12-18T09:35:02;102707.31;;;-1.56
66113;BMP280;52893;52.870;5.822;2022-12-18T09:37:31;102710.50;;;-1.45
66113;BMP280;52893;52.870;5.822;2022-12-18T09:39:58;102704.19;;;-1.38
66113;BMP280;52893;52.870;5.822;2022-12-18T09:42:25;102697.31;;;-1.26
66113;BMP280;52893;52.870;5.822;2022-12-18T09:44:53;102686.09;;;-1.08
66113;BMP280;52893;52.870;5.822;2022-12-18T09:47:24;102682.28;;;-0.92
66113;BMP280;52893;52.870;5.822;2022-12-18T09:49:55;102689.34;;;-0.85
66113;BMP280;52893;52.870;5.822;2022-12-18T09:52:26;102678.19;;;-0.88
66113;BMP280;52893;52.870;5.822;2022-12-18T09:55:00;102642.63;;;-1.03
66113;BMP280;52893;52.870;5.822;2022-12-18T09:57:31;102659.19;;;-0.93
66113;BMP280;52893;52.870;5.822;2022-12-18T10:00:09;102649.47;;;-0.94
66113;BMP280;52893;52.870;5.822;2022-12-18T10:02:38;102645.56;;;-0.98
66113;BMP280;52893;52.870;5.822;2022-12-18T10:05:12;102643.91;;;-0.99
66113;BMP280;52893;52.870;5.822;2022-12-18T10:07:49;102643.91;;;-0.99
66113;BMP280;52893;52.870;5.822;2022-12-18T10:10:31;102635.84;;;-0.99
66113;BMP280;52893;52.870;5.822;2022-12-18T10:13:02;102627.81;;;-0.99
66113;BMP280;52893;52.870;5.822;2022-12-18T10:15:36;102626.59;;;-0.97
66113;BMP280;52893;52.870;5.822;2022-12-18T10:18:15;102620.00;;;-0.94
66113;BMP280;52893;52.870;5.822;2022-12-18T10:20:47;102621.88;;;-0.95
66113;BMP280;52893;52.870;5.822;2022-12-18T10:23:21;102616.72;;;-0.96
66113;BMP280;52893;52.870;5.822;2022-12-18T10:25:55;102613.47;;;-0.85
66113;BMP280;52893;52.870;5.822;2022-12-18T10:28:30;102613.50;;;-0.79
66113;BMP280;52893;52.870;5.822;2022-12-18T10:30:58;102606.91;;;-0.76
66113;BMP280;52893;52.870;5.822;2022-12-18T10:33:29;102602.16;;;-0.74
66113;BMP280;52893;52.870;5.822;2022-12-18T10:35:58;102606.50;;;-0.73
66113;BMP280;52893;52.870;5.822;2022-12-18T10:38:27;102602.78;;;-0.72
66113;BMP280;52893;52.870;5.822;2022-12-18T10:40:57;102604.44;;;-0.71
66113;BMP280;52893;52.870;5.822;2022-12-18T10:43:28;102592.69;;;-0.70
66113;BMP280;52893;52.870;5.822;2022-12-18T10:46:02;102596.59;;;-0.73
66113;BMP280;52893;52.870;5.822;2022-12-18T10:48:35;102540.81;;;-0.97
66113;BMP280;52893;52.870;5.822;2022-12-18T10:51:03;102587.97;;;-0.68
66113;BMP280;52893;52.870;5.822;2022-12-18T10:53:32;102595.59;;;-0.65
66113;BMP280;52893;52.870;5.822;2022-12-18T10:56:04;102596.66;;;-0.59
66113;BMP280;52893;52.870;5.822;2022-12-18T10:58:33;102582.03;;;-0.57
66113;BMP280;52893;52.870;5.822;2022-12-18T11:01:08;102545.84;;;-0.74
66113;BMP280;52893;52.870;5.822;2022-12-18T11:03:38;102581.41;;;-0.46
66113;BMP280;52893;52.870;5.822;2022-12-18T11:06:09;102582.69;;;-0.42
66113;BMP280;52893;52.870;5.822;2022-12-18T11:08:38;102602.50;;;-0.36
66113;BMP280;52893;52.870;5.822;2022-12-18T11:11:19;102608.31;;;-0.32
66113;BMP280;52893;52.870;5.822;2022-12-18T11:14:05;102599.66;;;-0.28
66113;BMP280;52893;52.870;5.822;2022-12-18T11:16:36;102581.03;;;-0.36
66113;BMP280;52893;52.870;5.822;2022-12-18T11:19:31;102592.66;;;-0.22
66113;BMP280;52893;52.870;5.822;2022-12-18T11:22:00;102594.13;;;-0.20
66113;BMP280;52893;52.870;5.822;2022-12-18T11:24:30;102594.97;;;-0.19
66113;BMP280;52893;52.870;5.822;2022-12-18T11:27:01;102585.84;;;-0.25
66113;BMP280;52893;52.870;5.822;2022-12-18T11:29:33;102581.94;;;-0.22
66113;BMP280;52893;52.870;5.822;2022-12-18T11:32:21;102569.97;;;-0.20
66113;BMP280;52893;52.870;5.822;2022-12-18T11:34:52;102487.28;;;-0.64
66113;BMP280;52893;52.870;5.822;2022-12-18T11:37:23;102549.34;;;-0.19
66113;BMP280;52893;52.870;5.822;2022-12-18T11:39:56;102543.34;;;-0.15
66113;BMP280;52893;52.870;5.822;2022-12-18T11:42:32;102547.66;;;-0.14
66113;BMP280;52893;52.870;5.822;2022-12-18T11:45:18;102548.09;;;-0.10
66113;BMP280;52893;52.870;5.822;2022-12-18T11:47:52;102536.31;;;-0.09
66113;BMP280;52893;52.870;5.822;2022-12-18T11:50:24;102529.91;;;-0.08
66113;BMP280;52893;52.870;5.822;2022-12-18T11:52:53;102530.53;;;-0.06
66113;BMP280;52893;52.870;5.822;2022-12-18T11:55:29;102522.47;;;-0.06
66113;BMP280;52893;52.870;5.822;2022-12-18T11:58:04;102518.78;;;-0.05
66113;BMP280;52893;52.870;5.822;2022-12-18T12:00:38;102515.88;;;-0.04
66113;BMP280;52893;52.870;5.822;2022-12-18T12:03:34;102509.28;;;-0.01
66113;BMP280;52893;52.870;5.822;2022-12-18T12:06:10;102491.09;;;0.01
66113;BMP280;52893;52.870;5.822;2022-12-18T12:08:51;102489.03;;;0.03
66113;BMP280;52893;52.870;5.822;2022-12-18T12:11:28;102483.25;;;0.06
66113;BMP280;52893;52.870;5.822;2022-12-18T12:14:09;102477.47;;;0.09
66113;BMP280;52893;52.870;5.822;2022-12-18T12:16:46;102464.66;;;0.11
66113;BMP280;52893;52.870;5.822;2022-12-18T12:19:26;102470.00;;;0.11
66113;BMP280;52893;52.870;5.822;2022-12-18T12:22:00;102457.22;;;0.07
66113;BMP280;52893;52.870;5.822;2022-12-18T12:24:39;102452.88;;;0.19
66113;BMP280;52893;52.870;5.822;2022-12-18T12:27:16;102445.22;;;0.16
66113;BMP280;52893;52.870;5.822;2022-12-18T12:29:56;102387.88;;;-0.16
66113;BMP280;52893;52.870;5.822;2022-12-18T12:32:37;102453.25;;;0.29
66113;BMP280;52893;52.870;5.822;2022-12-18T12:35:18;102444.59;;;0.27
66113;BMP280;52893;52.870;5.822;2022-12-18T12:37:54;102449.72;;;0.28
66113;BMP280;52893;52.870;5.822;2022-12-18T12:40:27;102443.56;;;0.28
66113;BMP280;52893;52.870;5.822;2022-12-18T12:42:57;102364.75;;;-0.17
66113;BMP280;52893;52.870;5.822;2022-12-18T12:45:44;102437.75;;;0.31
66113;BMP280;52893;52.870;5.822;2022-12-18T12:48:21;102429.31;;;0.27
66113;BMP280;52893;52.870;5.822;2022-12-18T12:50:50;102430.53;;;0.31
66113;BMP280;52893;52.870;5.822;2022-12-18T12:53:23;102439.78;;;0.35
66113;BMP280;52893;52.870;5.822;2022-12-18T12:55:52;102447.66;;;0.37
66113;BMP280;52893;52.870;5.822;2022-12-18T12:58:28;102446.81;;;0.36
66113;BMP280;52893;52.870;5.822;2022-12-18T13:01:08;102443.91;;;0.38
66113;BMP280;52893;52.870;5.822;2022-12-18T13:03:44;102434.59;;;0.41
66113;BMP280;52893;52.870;5.822;2022-12-18T13:06:19;102432.72;;;0.41
66113;BMP280;52893;52.870;5.822;2022-12-18T13:08:56;102428.19;;;0.42
66113;BMP280;52893;52.870;5.822;2022-12-18T13:11:32;102420.13;;;0.42
66113;BMP280;52893;52.870;5.822;2022-12-18T13:14:24;102419.94;;;0.43
66113;BMP280;52893;52.870;5.822;2022-12-18T13:16:53;102407.72;;;0.41
66113;BMP280;52893;52.870;5.822;2022-12-18T13:19:40;102415.38;;;0.44
66113;BMP280;52893;52.870;5.822;2022-12-18T13:22:21;102408.97;;;0.45
66113;BMP280;52893;52.870;5.822;2022-12-18T13:24:49;102408.97;;;0.45
66113;BMP280;52893;52.870;5.822;2022-12-18T13:27:46;102414.34;;;0.45
66113;BMP280;52893;52.870;5.822;2022-12-18T13:33:48;102418.69;;;0.46
66113;BMP280;52893;52.870;5.822;2022-12-18T13:36:26;102411.22;;;0.48
66113;BMP280;52893;52.870;5.822;2022-12-18T13:39:33;102398.84;;;0.47
66113;BMP280;52893;52.870;5.822;2022-12-18T13:42:31;102393.47;;;0.47
66113;BMP280;52893;52.870;5.822;2022-12-18T13:45:38;102390.78;;;0.47
66113;BMP280;52893;52.870;5.822;2022-12-18T13:48:15;102386.25;;;0.47
66113;BMP280;52893;52.870;5.822;2022-12-18T13:50:48;102377.13;;;0.48
66113;BMP280;52893;52.870;5.822;2022-12-18T13:53:19;102370.13;;;0.47
66113;BMP280;52893;52.870;5.822;2022-12-18T13:55:47;102384.34;;;0.48
66113;BMP280;52893;52.870;5.822;2022-12-18T13:58:15;102371.97;;;0.47
66113;BMP280;52893;52.870;5.822;2022-12-18T14:00:43;102380.03;;;0.47
66113;BMP280;52893;52.870;5.822;2022-12-18T14:03:19;102374.66;;;0.47
66113;BMP280;52893;52.870;5.822;2022-12-18T14:05:52;102364.94;;;0.46
66113;BMP280;52893;52.870;5.822;2022-12-18T14:08:21;102357.94;;;0.45
66113;BMP280;52893;52.870;5.822;2022-12-18T14:10:51;102360.00;;;0.43
66113;BMP280;52893;52.870;5.822;2022-12-18T14:13:23;102354.63;;;0.43
66113;BMP280;52893;52.870;5.822;2022-12-18T14:15:52;102356.69;;;0.41
66113;BMP280;52893;52.870;5.822;2022-12-18T14:18:21;102355.03;;;0.39
66113;BMP280;52893;52.870;5.822;2022-12-18T14:20:52;102349.09;;;0.37
66113;BMP280;52893;52.870;5.822;2022-12-18T14:23:28;102345.56;;;0.37
66113;BMP280;52893;52.870;5.822;2022-12-18T14:25:56;102329.66;;;0.35